sensor_id;sensor_type;location;lat;lon;timestamp;P1;durP1;ratioP1;P2;durP2;ratioP2
81591;SDS011;71014;53.394;6.724;2023-07-20T00:01:14;3.13;;;1.20;;
81591;SDS011;71014;53.394;6.724;2023-07-20T00:03:40;2.05;;;1.00;;
81591;SDS011;71014;53.394;6.724;2023-07-20T00:06:06;2.60;;;1.27;;
81591;SDS011;71014;53.394;6.724;2023-07-20T00:08:32;1.70;;;1.48;;
81591;SDS011;71014;53.394;6.724;2023-07-20T00:10:58;2.15;;;1.20;;
81591;SDS011;71014;53.394;6.724;2023-07-20T00:13:24;4.20;;;1.50;;
81591;SDS011;71014;53.394;6.724;2023-07-20T00:15:51;2.72;;;1.40;;
81591;SDS011;71014;53.394;6.724;2023-07-20T00:18:17;3.65;;;1.30;;
81591;SDS011;71014;53.394;6.724;2023-07-20T00:20:46;2.33;;;1.52;;
81591;SDS011;71014;53.394;6.724;2023-07-20T00:23:12;2.33;;;1.38;;
81591;SDS011;71014;53.394;6.724;2023-07-20T00:25:38;2.05;;;1.10;;
81591;SDS011;71014;53.394;6.724;2023-07-20T00:28:04;2.15;;;1.13;;
81591;SDS011;71014;53.394;6.724;2023-07-20T00:30:30;3.80;;;1.25;;
81591;SDS011;71014;53.394;6.724;2023-07-20T00:32:56;3.88;;;1.17;;
81591;SDS011;71014;53.394;6.724;2023-07-20T00:35:22;1.67;;;1.40;;
81591;SDS011;71014;53.394;6.724;2023-07-20T00:37:48;2.45;;;1.30;;
81591;SDS011;71014;53.394;6.724;2023-07-20T00:40:14;2.58;;;1.17;;
81591;SDS011;71014;53.394;6.724;2023-07-20T00:42:40;4.07;;;1.13;;
81591;SDS011;71014;53.394;6.724;2023-07-20T00:45:06;1.40;;;1.02;;
81591;SDS011;71014;53.394;6.724;2023-07-20T00:47:32;1.75;;;0.93;;
81591;SDS011;71014;53.394;6.724;2023-07-20T00:49:58;2.55;;;1.10;;
81591;SDS011;71014;53.394;6.724;2023-07-20T00:52:24;4.93;;;1.40;;
81591;SDS011;71014;53.394;6.724;2023-07-20T00:54:51;3.95;;;1.00;;
81591;SDS011;71014;53.394;6.724;2023-07-20T00:57:21;1.17;;;0.90;;
81591;SDS011;71014;53.394;6.724;2023-07-20T00:59:47;3.38;;;1.30;;
81591;SDS011;71014;53.394;6.724;2023-07-20T01:02:13;4.75;;;1.30;;
81591;SDS011;71014;53.394;6.724;2023-07-20T01:04:40;5.93;;;1.70;;
81591;SDS011;71014;53.394;6.724;2023-07-20T01:09:46;4.53;;;1.30;;
81591;SDS011;71014;53.394;6.724;2023-07-20T01:12:17;2.30;;;1.20;;
81591;SDS011;71014;53.394;6.724;2023-07-20T01:14:44;5.40;;;1.10;;
81591;SDS011;71014;53.394;6.724;2023-07-20T01:17:10;4.60;;;1.10;;
81591;SDS011;71014;53.394;6.724;2023-07-20T01:19:37;4.15;;;0.93;;
81591;SDS011;71014;53.394;6.724;2023-07-20T01:24:42;2.10;;;1.40;;
81591;SDS011;71014;53.394;6.724;2023-07-20T01:32:25;3.35;;;1.10;;
81591;SDS011;71014;53.394;6.724;2023-07-20T01:34:52;5.40;;;1.30;;
81591;SDS011;71014;53.394;6.724;2023-07-20T01:37:19;2.22;;;1.00;;
81591;SDS011;71014;53.394;6.724;2023-07-20T01:39:46;3.80;;;1.08;;
81591;SDS011;71014;53.394;6.724;2023-07-20T01:42:12;4.95;;;1.27;;
81591;SDS011;71014;53.394;6.724;2023-07-20T01:44:39;5.97;;;1.23;;
81591;SDS011;71014;53.394;6.724;2023-07-20T01:47:05;6.45;;;1.33;;
81591;SDS011;71014;53.394;6.724;2023-07-20T01:49:32;3.97;;;0.95;;
81591;SDS011;71014;53.394;6.724;2023-07-20T01:51:58;6.28;;;2.22;;
81591;SDS011;71014;53.394;6.724;2023-07-20T01:54:24;8.35;;;1.65;;
81591;SDS011;71014;53.394;6.724;2023-07-20T01:56:50;5.05;;;1.35;;
81591;SDS011;71014;53.394;6.724;2023-07-20T01:59:16;3.42;;;1.27;;
81591;SDS011;71014;53.394;6.724;2023-07-20T02:01:42;4.85;;;1.13;;
81591;SDS011;71014;53.394;6.724;2023-07-20T02:04:08;5.50;;;1.40;;
81591;SDS011;71014;53.394;6.724;2023-07-20T02:06:34;2.97;;;0.93;;
81591;SDS011;71014;53.394;6.724;2023-07-20T02:09:00;3.67;;;1.30;;
81591;SDS011;71014;53.394;6.724;2023-07-20T02:11:26;5.63;;;1.63;;
81591;SDS011;71014;53.394;6.724;2023-07-20T02:13:52;4.10;;;1.40;;
81591;SDS011;71014;53.394;6.724;2023-07-20T02:16:18;3.40;;;1.13;;
81591;SDS011;71014;53.394;6.724;2023-07-20T02:18:44;1.48;;;1.20;;
81591;SDS011;71014;53.394;6.724;2023-07-20T02:21:10;5.60;;;1.30;;
81591;SDS011;71014;53.394;6.724;2023-07-20T02:23:36;4.70;;;1.42;;
81591;SDS011;71014;53.394;6.724;2023-07-20T02:26:02;2.25;;;1.20;;
81591;SDS011;71014;53.394;6.724;2023-07-20T02:28:28;2.60;;;1.25;;
81591;SDS011;71014;53.394;6.724;2023-07-20T02:30:54;2.83;;;1.20;;
81591;SDS011;71014;53.394;6.724;2023-07-20T02:33:20;4.82;;;0.98;;
81591;SDS011;71014;53.394;6.724;2023-07-20T02:35:46;2.22;;;1.35;;
81591;SDS011;71014;53.394;6.724;2023-07-20T02:38:12;3.92;;;1.10;;
81591;SDS011;71014;53.394;6.724;2023-07-20T02:40:38;5.25;;;1.23;;
81591;SDS011;71014;53.394;6.724;2023-07-20T02:43:04;3.17;;;1.00;;
81591;SDS011;71014;53.394;6.724;2023-07-20T02:45:30;2.88;;;1.10;;
81591;SDS011;71014;53.394;6.724;2023-07-20T02:47:56;3.10;;;1.00;;
81591;SDS011;71014;53.394;6.724;2023-07-20T02:50:22;3.00;;;1.10;;
81591;SDS011;71014;53.394;6.724;2023-07-20T02:52:49;4.43;;;0.88;;
81591;SDS011;71014;53.394;6.724;2023-07-20T02:55:15;4.85;;;1.20;;
81591;SDS011;71014;53.394;6.724;2023-07-20T02:57:41;7.93;;;1.30;;
81591;SDS011;71014;53.394;6.724;2023-07-20T03:00:07;6.68;;;1.45;;
81591;SDS011;71014;53.394;6.724;2023-07-20T03:02:33;5.07;;;1.50;;
81591;SDS011;71014;53.394;6.724;2023-07-20T03:04:59;4.70;;;1.40;;
81591;SDS011;71014;53.394;6.724;2023-07-20T03:07:26;3.70;;;1.45;;
81591;SDS011;71014;53.394;6.724;2023-07-20T03:09:53;6.22;;;1.45;;
81591;SDS011;71014;53.394;6.724;2023-07-20T03:12:20;3.30;;;1.27;;
81591;SDS011;71014;53.394;6.724;2023-07-20T03:14:46;4.05;;;1.13;;
81591;SDS011;71014;53.394;6.724;2023-07-20T03:17:12;4.93;;;1.70;;
81591;SDS011;71014;53.394;6.724;2023-07-20T03:19:38;3.40;;;1.42;;
81591;SDS011;71014;53.394;6.724;2023-07-20T03:22:04;4.32;;;1.98;;
81591;SDS011;71014;53.394;6.724;2023-07-20T03:24:30;4.05;;;1.30;;
81591;SDS011;71014;53.394;6.724;2023-07-20T03:26:56;9.60;;;1.60;;
81591;SDS011;71014;53.394;6.724;2023-07-20T03:29:22;3.83;;;1.60;;
81591;SDS011;71014;53.394;6.724;2023-07-20T03:31:48;3.83;;;1.60;;
81591;SDS011;71014;53.394;6.724;2023-07-20T03:34:15;2.63;;;1.15;;
81591;SDS011;71014;53.394;6.724;2023-07-20T03:36:41;5.97;;;1.48;;
81591;SDS011;71014;53.394;6.724;2023-07-20T03:39:07;4.03;;;1.48;;
81591;SDS011;71014;53.394;6.724;2023-07-20T03:41:33;6.43;;;1.55;;
81591;SDS011;71014;53.394;6.724;2023-07-20T03:44:00;10.30;;;1.80;;
81591;SDS011;71014;53.394;6.724;2023-07-20T03:46:26;5.65;;;1.55;;
81591;SDS011;71014;53.394;6.724;2023-07-20T03:48:52;11.10;;;3.03;;
81591;SDS011;71014;53.394;6.724;2023-07-20T03:51:18;11.52;;;2.60;;
81591;SDS011;71014;53.394;6.724;2023-07-20T03:53:44;7.82;;;1.75;;
81591;SDS011;71014;53.394;6.724;2023-07-20T03:56:10;5.60;;;2.30;;
81591;SDS011;71014;53.394;6.724;2023-07-20T03:58:36;4.38;;;1.65;;
81591;SDS011;71014;53.394;6.724;2023-07-20T04:01:02;5.60;;;2.08;;
81591;SDS011;71014;53.394;6.724;2023-07-20T04:03:28;3.15;;;1.50;;
81591;SDS011;71014;53.394;6.724;2023-07-20T04:05:54;5.50;;;1.80;;
81591;SDS011;71014;53.394;6.724;2023-07-20T04:08:22;5.45;;;1.02;;
81591;SDS011;71014;53.394;6.724;2023-07-20T04:10:49;2.78;;;1.00;;
81591;SDS011;71014;53.394;6.724;2023-07-20T04:13:15;2.75;;;0.98;;
81591;SDS011;71014;53.394;6.724;2023-07-20T04:15:41;1.08;;;0.90;;
81591;SDS011;71014;53.394;6.724;2023-07-20T04:18:07;1.55;;;0.63;;
81591;SDS011;71014;53.394;6.724;2023-07-20T04:20:33;2.10;;;0.93;;
81591;SDS011;71014;53.394;6.724;2023-07-20T04:22:59;1.38;;;0.73;;
81591;SDS011;71014;53.394;6.724;2023-07-20T04:25:25;2.15;;;0.90;;
81591;SDS011;71014;53.394;6.724;2023-07-20T04:27:51;1.30;;;0.90;;
81591;SDS011;71014;53.394;6.724;2023-07-20T04:30:18;2.63;;;1.33;;
81591;SDS011;71014;53.394;6.724;2023-07-20T04:32:48;3.40;;;0.88;;
81591;SDS011;71014;53.394;6.724;2023-07-20T04:35:16;3.63;;;0.95;;
81591;SDS011;71014;53.394;6.724;2023-07-20T04:37:42;2.25;;;0.90;;
81591;SDS011;71014;53.394;6.724;2023-07-20T04:40:11;4.35;;;1.85;;
81591;SDS011;71014;53.394;6.724;2023-07-20T04:42:37;1.85;;;1.10;;
81591;SDS011;71014;53.394;6.724;2023-07-20T04:45:04;1.23;;;0.95;;
81591;SDS011;71014;53.394;6.724;2023-07-20T04:47:30;2.15;;;1.20;;
81591;SDS011;71014;53.394;6.724;2023-07-20T04:49:56;4.97;;;1.02;;
81591;SDS011;71014;53.394;6.724;2023-07-20T04:52:22;4.18;;;1.50;;
81591;SDS011;71014;53.394;6.724;2023-07-20T04:54:48;1.60;;;1.27;;
81591;SDS011;71014;53.394;6.724;2023-07-20T04:57:14;3.45;;;1.40;;
81591;SDS011;71014;53.394;6.724;2023-07-20T04:59:40;2.20;;;1.10;;
81591;SDS011;71014;53.394;6.724;2023-07-20T05:02:06;4.00;;;1.13;;
81591;SDS011;71014;53.394;6.724;2023-07-20T05:04:32;1.98;;;1.13;;
81591;SDS011;71014;53.394;6.724;2023-07-20T05:06:58;2.63;;;1.17;;
81591;SDS011;71014;53.394;6.724;2023-07-20T05:09:24;2.42;;;1.00;;
81591;SDS011;71014;53.394;6.724;2023-07-20T05:11:50;3.42;;;1.30;;
81591;SDS011;71014;53.394;6.724;2023-07-20T05:14:16;3.80;;;1.30;;
81591;SDS011;71014;53.394;6.724;2023-07-20T05:16:42;2.20;;;1.10;;
81591;SDS011;71014;53.394;6.724;2023-07-20T05:19:08;3.08;;;1.30;;
81591;SDS011;71014;53.394;6.724;2023-07-20T05:21:34;5.07;;;1.05;;
81591;SDS011;71014;53.394;6.724;2023-07-20T05:24:00;2.25;;;0.80;;
81591;SDS011;71014;53.394;6.724;2023-07-20T05:26:26;3.08;;;1.15;;
81591;SDS011;71014;53.394;6.724;2023-07-20T05:28:52;2.03;;;1.10;;
81591;SDS011;71014;53.394;6.724;2023-07-20T05:31:19;4.40;;;1.23;;
81591;SDS011;71014;53.394;6.724;2023-07-20T05:33:45;6.47;;;1.50;;
81591;SDS011;71014;53.394;6.724;2023-07-20T05:36:11;4.90;;;1.30;;
81591;SDS011;71014;53.394;6.724;2023-07-20T05:38:37;3.28;;;1.63;;
81591;SDS011;71014;53.394;6.724;2023-07-20T05:41:03;3.15;;;1.23;;
81591;SDS011;71014;53.394;6.724;2023-07-20T05:43:29;4.28;;;1.60;;
81591;SDS011;71014;53.394;6.724;2023-07-20T05:45:56;3.10;;;1.25;;
81591;SDS011;71014;53.394;6.724;2023-07-20T05:48:23;3.42;;;0.88;;
81591;SDS011;71014;53.394;6.724;2023-07-20T05:50:49;2.42;;;1.30;;
81591;SDS011;71014;53.394;6.724;2023-07-20T05:53:15;3.15;;;1.88;;
81591;SDS011;71014;53.394;6.724;2023-07-20T05:55:41;3.30;;;1.52;;
81591;SDS011;71014;53.394;6.724;2023-07-20T05:58:07;2.75;;;1.25;;
81591;SDS011;71014;53.394;6.724;2023-07-20T06:00:33;4.32;;;1.40;;
81591;SDS011;71014;53.394;6.724;2023-07-20T06:02:59;4.38;;;1.85;;
81591;SDS011;71014;53.394;6.724;2023-07-20T06:05:25;2.67;;;1.50;;
81591;SDS011;71014;53.394;6.724;2023-07-20T06:07:51;2.45;;;1.50;;
81591;SDS011;71014;53.394;6.724;2023-07-20T06:10:17;3.67;;;1.75;;
81591;SDS011;71014;53.394;6.724;2023-07-20T06:12:43;5.80;;;2.45;;
81591;SDS011;71014;53.394;6.724;2023-07-20T06:15:28;5.95;;;1.70;;
81591;SDS011;71014;53.394;6.724;2023-07-20T06:17:55;2.63;;;1.95;;
81591;SDS011;71014;53.394;6.724;2023-07-20T06:20:22;5.20;;;2.28;;
81591;SDS011;71014;53.394;6.724;2023-07-20T06:22:49;6.13;;;2.53;;
81591;SDS011;71014;53.394;6.724;2023-07-20T06:25:15;4.68;;;1.90;;
81591;SDS011;71014;53.394;6.724;2023-07-20T06:27:41;3.95;;;2.47;;
81591;SDS011;71014;53.394;6.724;2023-07-20T06:30:07;9.98;;;2.42;;
81591;SDS011;71014;53.394;6.724;2023-07-20T06:32:33;4.65;;;2.05;;
81591;SDS011;71014;53.394;6.724;2023-07-20T06:34:59;6.05;;;2.47;;
81591;SDS011;71014;53.394;6.724;2023-07-20T06:37:25;4.45;;;2.22;;
81591;SDS011;71014;53.394;6.724;2023-07-20T06:39:51;2.17;;;1.60;;
81591;SDS011;71014;53.394;6.724;2023-07-20T06:42:17;6.20;;;2.17;;
81591;SDS011;71014;53.394;6.724;2023-07-20T06:44:43;4.05;;;2.03;;
81591;SDS011;71014;53.394;6.724;2023-07-20T06:47:10;5.25;;;2.03;;
81591;SDS011;71014;53.394;6.724;2023-07-20T06:49:37;5.20;;;1.92;;
81591;SDS011;71014;53.394;6.724;2023-07-20T06:52:03;4.60;;;1.50;;
81591;SDS011;71014;53.394;6.724;2023-07-20T06:54:29;7.10;;;1.50;;
81591;SDS011;71014;53.394;6.724;2023-07-20T06:56:55;5.13;;;1.73;;
81591;SDS011;71014;53.394;6.724;2023-07-20T06:59:21;6.65;;;1.58;;
81591;SDS011;71014;53.394;6.724;2023-07-20T07:01:49;3.65;;;1.40;;
81591;SDS011;71014;53.394;6.724;2023-07-20T07:04:15;7.60;;;1.38;;
81591;SDS011;71014;53.394;6.724;2023-07-20T07:06:41;2.80;;;1.20;;
81591;SDS011;71014;53.394;6.724;2023-07-20T07:09:08;4.82;;;1.23;;
81591;SDS011;71014;53.394;6.724;2023-07-20T07:11:34;5.25;;;1.10;;
81591;SDS011;71014;53.394;6.724;2023-07-20T07:14:00;6.10;;;1.30;;
81591;SDS011;71014;53.394;6.724;2023-07-20T07:16:26;2.88;;;1.02;;
81591;SDS011;71014;53.394;6.724;2023-07-20T07:18:52;2.85;;;1.20;;
81591;SDS011;71014;53.394;6.724;2023-07-20T07:21:18;5.20;;;1.48;;
81591;SDS011;71014;53.394;6.724;2023-07-20T07:23:44;3.65;;;0.90;;
81591;SDS011;71014;53.394;6.724;2023-07-20T07:28:37;4.05;;;1.25;;
81591;SDS011;71014;53.394;6.724;2023-07-20T07:31:06;4.57;;;1.10;;
81591;SDS011;71014;53.394;6.724;2023-07-20T07:33:32;4.45;;;1.50;;
81591;SDS011;71014;53.394;6.724;2023-07-20T07:35:59;3.75;;;0.90;;
81591;SDS011;71014;53.394;6.724;2023-07-20T07:38:25;2.95;;;1.25;;
81591;SDS011;71014;53.394;6.724;2023-07-20T07:40:51;3.45;;;0.70;;
81591;SDS011;71014;53.394;6.724;2023-07-20T07:43:17;3.40;;;0.70;;
81591;SDS011;71014;53.394;6.724;2023-07-20T07:45:43;1.42;;;0.70;;
81591;SDS011;71014;53.394;6.724;2023-07-20T07:48:09;2.42;;;0.82;;
81591;SDS011;71014;53.394;6.724;2023-07-20T07:50:39;3.15;;;0.85;;
81591;SDS011;71014;53.394;6.724;2023-07-20T07:53:05;3.63;;;1.10;;
81591;SDS011;71014;53.394;6.724;2023-07-20T07:55:31;4.22;;;0.88;;
81591;SDS011;71014;53.394;6.724;2023-07-20T07:57:57;2.47;;;0.75;;
81591;SDS011;71014;53.394;6.724;2023-07-20T08:00:23;2.35;;;0.80;;
81591;SDS011;71014;53.394;6.724;2023-07-20T08:02:50;1.48;;;0.57;;
81591;SDS011;71014;53.394;6.724;2023-07-20T08:05:16;2.55;;;0.80;;
81591;SDS011;71014;53.394;6.724;2023-07-20T08:07:42;2.80;;;0.50;;
81591;SDS011;71014;53.394;6.724;2023-07-20T08:10:08;4.20;;;0.95;;
81591;SDS011;71014;53.394;6.724;2023-07-20T08:12:34;1.65;;;0.82;;
81591;SDS011;71014;53.394;6.724;2023-07-20T08:15:00;2.90;;;0.60;;
81591;SDS011;71014;53.394;6.724;2023-07-20T08:17:26;2.58;;;0.82;;
81591;SDS011;71014;53.394;6.724;2023-07-20T08:19:52;3.22;;;0.77;;
81591;SDS011;71014;53.394;6.724;2023-07-20T08:22:18;1.00;;;0.50;;
81591;SDS011;71014;53.394;6.724;2023-07-20T08:24:44;4.95;;;0.88;;
81591;SDS011;71014;53.394;6.724;2023-07-20T08:27:10;9.90;;;1.48;;
81591;SDS011;71014;53.394;6.724;2023-07-20T08:29:36;4.03;;;0.70;;
81591;SDS011;71014;53.394;6.724;2023-07-20T08:32:03;1.63;;;0.73;;
81591;SDS011;71014;53.394;6.724;2023-07-20T08:34:30;1.20;;;0.50;;
81591;SDS011;71014;53.394;6.724;2023-07-20T08:39:22;2.72;;;0.65;;
81591;SDS011;71014;53.394;6.724;2023-07-20T08:41:48;2.95;;;0.50;;
81591;SDS011;71014;53.394;6.724;2023-07-20T08:44:15;2.40;;;0.70;;
81591;SDS011;71014;53.394;6.724;2023-07-20T08:46:41;3.55;;;0.75;;
81591;SDS011;71014;53.394;6.724;2023-07-20T08:49:07;1.95;;;0.63;;
81591;SDS011;71014;53.394;6.724;2023-07-20T08:51:33;1.67;;;0.50;;
81591;SDS011;71014;53.394;6.724;2023-07-20T08:56:25;2.03;;;0.45;;
81591;SDS011;71014;53.394;6.724;2023-07-20T08:58:52;2.83;;;0.85;;
81591;SDS011;71014;53.394;6.724;2023-07-20T09:01:19;1.52;;;0.80;;
81591;SDS011;71014;53.394;6.724;2023-07-20T09:03:45;5.85;;;0.68;;
81591;SDS011;71014;53.394;6.724;2023-07-20T09:06:12;0.88;;;0.40;;
81591;SDS011;71014;53.394;6.724;2023-07-20T09:08:39;3.22;;;0.60;;
81591;SDS011;71014;53.394;6.724;2023-07-20T09:11:05;1.17;;;0.73;;
81591;SDS011;71014;53.394;6.724;2023-07-20T09:13:32;1.58;;;0.60;;
81591;SDS011;71014;53.394;6.724;2023-07-20T09:15:58;2.85;;;0.50;;
81591;SDS011;71014;53.394;6.724;2023-07-20T09:18:29;1.38;;;0.45;;
81591;SDS011;71014;53.394;6.724;2023-07-20T09:21:01;2.88;;;0.70;;
81591;SDS011;71014;53.394;6.724;2023-07-20T09:23:35;1.05;;;0.60;;
81591;SDS011;71014;53.394;6.724;2023-07-20T09:26:09;1.65;;;0.65;;
81591;SDS011;71014;53.394;6.724;2023-07-20T09:28:42;3.53;;;0.88;;
81591;SDS011;71014;53.394;6.724;2023-07-20T09:31:18;1.98;;;0.43;;
81591;SDS011;71014;53.394;6.724;2023-07-20T09:33:45;2.35;;;0.57;;
81591;SDS011;71014;53.394;6.724;2023-07-20T09:36:11;1.50;;;0.65;;
81591;SDS011;71014;53.394;6.724;2023-07-20T09:41:05;2.33;;;0.50;;
81591;SDS011;71014;53.394;6.724;2023-07-20T09:43:34;1.05;;;0.70;;
81591;SDS011;71014;53.394;6.724;2023-07-20T09:46:00;1.25;;;0.75;;
81591;SDS011;71014;53.394;6.724;2023-07-20T09:50:53;2.72;;;0.88;;
81591;SDS011;71014;53.394;6.724;2023-07-20T09:53:19;2.47;;;0.47;;
81591;SDS011;71014;53.394;6.724;2023-07-20T09:55:46;3.17;;;0.60;;
81591;SDS011;71014;53.394;6.724;2023-07-20T09:58:12;0.60;;;0.40;;
81591;SDS011;71014;53.394;6.724;2023-07-20T10:03:05;0.73;;;0.40;;
81591;SDS011;71014;53.394;6.724;2023-07-20T10:05:32;3.33;;;0.65;;
81591;SDS011;71014;53.394;6.724;2023-07-20T10:08:00;2.72;;;0.80;;
81591;SDS011;71014;53.394;6.724;2023-07-20T10:10:27;3.58;;;0.80;;
81591;SDS011;71014;53.394;6.724;2023-07-20T10:12:54;3.05;;;0.85;;
81591;SDS011;71014;53.394;6.724;2023-07-20T10:15:30;2.70;;;0.70;;
81591;SDS011;71014;53.394;6.724;2023-07-20T10:18:07;3.97;;;1.00;;
81591;SDS011;71014;53.394;6.724;2023-07-20T10:20:35;1.58;;;0.40;;
81591;SDS011;71014;53.394;6.724;2023-07-20T10:23:02;1.52;;;0.63;;
81591;SDS011;71014;53.394;6.724;2023-07-20T10:25:28;2.63;;;0.70;;
81591;SDS011;71014;53.394;6.724;2023-07-20T10:27:55;2.10;;;0.52;;
81591;SDS011;71014;53.394;6.724;2023-07-20T10:30:21;1.02;;;0.55;;
81591;SDS011;71014;53.394;6.724;2023-07-20T10:32:47;2.28;;;0.50;;
81591;SDS011;71014;53.394;6.724;2023-07-20T10:35:14;3.20;;;0.80;;
81591;SDS011;71014;53.394;6.724;2023-07-20T10:37:59;0.77;;;0.43;;
81591;SDS011;71014;53.394;6.724;2023-07-20T10:43:07;1.48;;;0.57;;
81591;SDS011;71014;53.394;6.724;2023-07-20T10:45:34;2.60;;;0.80;;
81591;SDS011;71014;53.394;6.724;2023-07-20T10:48:13;1.42;;;0.57;;
81591;SDS011;71014;53.394;6.724;2023-07-20T10:50:41;4.00;;;0.85;;
81591;SDS011;71014;53.394;6.724;2023-07-20T10:53:11;3.00;;;0.60;;
81591;SDS011;71014;53.394;6.724;2023-07-20T10:55:37;1.95;;;0.70;;
81591;SDS011;71014;53.394;6.724;2023-07-20T10:58:07;1.50;;;0.57;;
81591;SDS011;71014;53.394;6.724;2023-07-20T11:00:34;2.92;;;0.57;;
81591;SDS011;71014;53.394;6.724;2023-07-20T11:03:00;4.00;;;1.20;;
81591;SDS011;71014;53.394;6.724;2023-07-20T11:05:34;1.60;;;0.40;;
81591;SDS011;71014;53.394;6.724;2023-07-20T11:08:00;0.55;;;0.43;;
81591;SDS011;71014;53.394;6.724;2023-07-20T11:10:28;2.55;;;0.60;;
81591;SDS011;71014;53.394;6.724;2023-07-20T11:15:45;1.38;;;0.60;;
81591;SDS011;71014;53.394;6.724;2023-07-20T11:18:12;1.05;;;0.52;;
81591;SDS011;71014;53.394;6.724;2023-07-20T11:20:38;2.10;;;0.50;;
81591;SDS011;71014;53.394;6.724;2023-07-20T11:23:04;3.20;;;0.70;;
81591;SDS011;71014;53.394;6.724;2023-07-20T11:25:39;0.50;;;0.40;;
81591;SDS011;71014;53.394;6.724;2023-07-20T11:28:06;1.10;;;0.35;;
81591;SDS011;71014;53.394;6.724;2023-07-20T11:30:33;1.75;;;0.70;;
81591;SDS011;71014;53.394;6.724;2023-07-20T11:32:59;1.27;;;0.50;;
81591;SDS011;71014;53.394;6.724;2023-07-20T11:35:25;0.93;;;0.30;;
81591;SDS011;71014;53.394;6.724;2023-07-20T11:37:51;1.55;;;0.38;;
81591;SDS011;71014;53.394;6.724;2023-07-20T11:40:17;0.73;;;0.43;;
81591;SDS011;71014;53.394;6.724;2023-07-20T11:42:44;2.72;;;0.40;;
81591;SDS011;71014;53.394;6.724;2023-07-20T11:45:11;1.02;;;0.52;;
81591;SDS011;71014;53.394;6.724;2023-07-20T11:47:40;2.50;;;0.50;;
81591;SDS011;71014;53.394;6.724;2023-07-20T11:52:36;1.92;;;0.60;;
81591;SDS011;71014;53.394;6.724;2023-07-20T11:55:02;1.15;;;0.70;;
81591;SDS011;71014;53.394;6.724;2023-07-20T11:57:28;1.08;;;0.40;;
81591;SDS011;71014;53.394;6.724;2023-07-20T12:00:00;2.22;;;0.60;;
81591;SDS011;71014;53.394;6.724;2023-07-20T12:02:29;1.95;;;0.60;;
81591;SDS011;71014;53.394;6.724;2023-07-20T12:04:56;3.25;;;0.80;;
81591;SDS011;71014;53.394;6.724;2023-07-20T12:07:22;1.58;;;0.63;;
81591;SDS011;71014;53.394;6.724;2023-07-20T12:12:33;2.38;;;0.70;;
81591;SDS011;71014;53.394;6.724;2023-07-20T12:18:01;2.58;;;0.70;;
81591;SDS011;71014;53.394;6.724;2023-07-20T12:22:55;1.60;;;0.60;;
81591;SDS011;71014;53.394;6.724;2023-07-20T12:25:21;2.30;;;0.80;;
81591;SDS011;71014;53.394;6.724;2023-07-20T12:27:47;1.55;;;0.50;;
81591;SDS011;71014;53.394;6.724;2023-07-20T12:30:13;1.95;;;0.63;;
81591;SDS011;71014;53.394;6.724;2023-07-20T12:32:40;2.80;;;0.77;;
81591;SDS011;71014;53.394;6.724;2023-07-20T12:35:06;1.25;;;0.47;;
81591;SDS011;71014;53.394;6.724;2023-07-20T12:37:32;2.00;;;1.00;;
81591;SDS011;71014;53.394;6.724;2023-07-20T12:39:58;1.00;;;0.50;;
81591;SDS011;71014;53.394;6.724;2023-07-20T12:42:24;3.78;;;0.77;;
81591;SDS011;71014;53.394;6.724;2023-07-20T12:44:50;1.70;;;0.60;;
81591;SDS011;71014;53.394;6.724;2023-07-20T12:47:18;0.73;;;0.38;;
81591;SDS011;71014;53.394;6.724;2023-07-20T12:49:44;1.80;;;0.65;;
81591;SDS011;71014;53.394;6.724;2023-07-20T12:52:11;2.45;;;0.68;;
81591;SDS011;71014;53.394;6.724;2023-07-20T12:54:38;2.50;;;0.73;;
81591;SDS011;71014;53.394;6.724;2023-07-20T12:57:04;3.65;;;0.70;;
81591;SDS011;71014;53.394;6.724;2023-07-20T12:59:30;0.98;;;0.30;;
81591;SDS011;71014;53.394;6.724;2023-07-20T13:01:56;1.67;;;0.52;;
81591;SDS011;71014;53.394;6.724;2023-07-20T13:04:22;2.92;;;0.80;;
81591;SDS011;71014;53.394;6.724;2023-07-20T13:06:48;1.85;;;0.80;;
81591;SDS011;71014;53.394;6.724;2023-07-20T13:09:14;1.50;;;0.70;;
81591;SDS011;71014;53.394;6.724;2023-07-20T13:11:40;1.67;;;0.50;;
81591;SDS011;71014;53.394;6.724;2023-07-20T13:14:06;2.45;;;0.80;;
81591;SDS011;71014;53.394;6.724;2023-07-20T13:16:32;1.67;;;0.55;;
81591;SDS011;71014;53.394;6.724;2023-07-20T13:18:59;1.08;;;0.68;;
81591;SDS011;71014;53.394;6.724;2023-07-20T13:21:25;1.02;;;0.47;;
81591;SDS011;71014;53.394;6.724;2023-07-20T13:23:51;3.33;;;0.80;;
81591;SDS011;71014;53.394;6.724;2023-07-20T13:26:17;1.75;;;0.60;;
81591;SDS011;71014;53.394;6.724;2023-07-20T13:28:43;1.30;;;0.60;;
81591;SDS011;71014;53.394;6.724;2023-07-20T13:31:09;1.48;;;0.82;;
81591;SDS011;71014;53.394;6.724;2023-07-20T13:33:36;1.85;;;0.82;;
81591;SDS011;71014;53.394;6.724;2023-07-20T13:36:03;4.82;;;0.77;;
81591;SDS011;71014;53.394;6.724;2023-07-20T13:38:30;1.88;;;0.68;;
81591;SDS011;71014;53.394;6.724;2023-07-20T13:40:56;1.90;;;0.60;;
81591;SDS011;71014;53.394;6.724;2023-07-20T13:43:22;2.05;;;0.80;;
81591;SDS011;71014;53.394;6.724;2023-07-20T13:45:48;1.65;;;0.88;;
81591;SDS011;71014;53.394;6.724;2023-07-20T13:48:15;1.15;;;0.70;;
81591;SDS011;71014;53.394;6.724;2023-07-20T13:50:44;4.85;;;0.70;;
81591;SDS011;71014;53.394;6.724;2023-07-20T13:53:10;1.40;;;0.50;;
81591;SDS011;71014;53.394;6.724;2023-07-20T13:55:36;0.77;;;0.50;;
81591;SDS011;71014;53.394;6.724;2023-07-20T13:58:03;2.20;;;0.45;;
81591;SDS011;71014;53.394;6.724;2023-07-20T14:00:29;1.42;;;0.60;;
81591;SDS011;71014;53.394;6.724;2023-07-20T14:02:58;2.78;;;0.60;;
81591;SDS011;71014;53.394;6.724;2023-07-20T14:05:24;2.05;;;0.75;;
81591;SDS011;71014;53.394;6.724;2023-07-20T14:07:51;2.40;;;0.70;;
81591;SDS011;71014;53.394;6.724;2023-07-20T14:10:17;1.58;;;0.57;;
81591;SDS011;71014;53.394;6.724;2023-07-20T14:12:43;1.60;;;0.43;;
81591;SDS011;71014;53.394;6.724;2023-07-20T14:15:10;3.13;;;0.68;;
81591;SDS011;71014;53.394;6.724;2023-07-20T14:17:36;0.90;;;0.60;;
81591;SDS011;71014;53.394;6.724;2023-07-20T14:20:02;2.10;;;0.70;;
81591;SDS011;71014;53.394;6.724;2023-07-20T14:22:31;1.55;;;0.60;;
81591;SDS011;71014;53.394;6.724;2023-07-20T14:24:57;2.17;;;0.90;;
81591;SDS011;71014;53.394;6.724;2023-07-20T14:27:24;2.00;;;0.55;;
81591;SDS011;71014;53.394;6.724;2023-07-20T14:29:50;0.60;;;0.52;;
81591;SDS011;71014;53.394;6.724;2023-07-20T14:32:16;1.23;;;0.60;;
81591;SDS011;71014;53.394;6.724;2023-07-20T14:34:42;1.45;;;0.68;;
81591;SDS011;71014;53.394;6.724;2023-07-20T14:37:08;3.15;;;0.68;;
81591;SDS011;71014;53.394;6.724;2023-07-20T14:39:34;3.00;;;0.60;;
81591;SDS011;71014;53.394;6.724;2023-07-20T14:42:00;2.00;;;0.70;;
81591;SDS011;71014;53.394;6.724;2023-07-20T14:44:28;1.60;;;0.70;;
81591;SDS011;71014;53.394;6.724;2023-07-20T14:46:54;1.50;;;0.70;;
81591;SDS011;71014;53.394;6.724;2023-07-20T14:49:20;2.67;;;0.90;;
81591;SDS011;71014;53.394;6.724;2023-07-20T14:51:46;1.60;;;0.70;;
81591;SDS011;71014;53.394;6.724;2023-07-20T14:54:13;1.67;;;0.70;;
81591;SDS011;71014;53.394;6.724;2023-07-20T14:56:39;1.70;;;0.80;;
81591;SDS011;71014;53.394;6.724;2023-07-20T14:59:05;2.92;;;0.85;;
81591;SDS011;71014;53.394;6.724;2023-07-20T15:01:32;1.80;;;0.45;;
81591;SDS011;71014;53.394;6.724;2023-07-20T15:03:58;4.68;;;0.85;;
81591;SDS011;71014;53.394;6.724;2023-07-20T15:06:25;1.13;;;0.60;;
81591;SDS011;71014;53.394;6.724;2023-07-20T15:08:51;2.05;;;0.60;;
81591;SDS011;71014;53.394;6.724;2023-07-20T15:11:17;1.35;;;0.60;;
81591;SDS011;71014;53.394;6.724;2023-07-20T15:13:44;2.67;;;0.80;;
81591;SDS011;71014;53.394;6.724;2023-07-20T15:16:10;1.60;;;0.63;;
81591;SDS011;71014;53.394;6.724;2023-07-20T15:18:36;2.30;;;0.73;;
81591;SDS011;71014;53.394;6.724;2023-07-20T15:21:02;2.40;;;0.90;;
81591;SDS011;71014;53.394;6.724;2023-07-20T15:23:28;0.98;;;0.63;;
81591;SDS011;71014;53.394;6.724;2023-07-20T15:25:54;0.80;;;0.63;;